sensor_id;sensor_type;location;lat;lon;timestamp;pressure;altitude;pressure_sealevel;temperature;humidity
72921;BME280;61064;51.654;5.476;2022-09-09T00:04:35;100770.97;;;15.08;81.09
72921;BME280;61064;51.654;5.476;2022-09-09T00:07:06;100783.34;;;15.17;81.51
72921;BME280;61064;51.654;5.476;2022-09-09T00:15:18;100770.97;;;15.05;81.62
72921;BME280;61064;51.654;5.476;2022-09-09T00:20:41;100794.13;;;15.14;81.21
72921;BME280;61064;51.654;5.476;2022-09-09T00:23:28;100759.50;;;14.95;81.31
72921;BME280;61064;51.654;5.476;2022-09-09T00:28:22;100789.72;;;15.08;81.42
72921;BME280;61064;51.654;5.476;2022-09-09T00:30:48;100768.44;;;14.96;81.37
72921;BME280;61064;51.654;5.476;2022-09-09T00:33:16;100732.13;;;14.74;81.55
72921;BME280;61064;51.654;5.476;2022-09-09T00:35:57;100749.00;;;14.82;81.65
72921;BME280;61064;51.654;5.476;2022-09-09T00:38:28;100723.31;;;14.63;81.45
72921;BME280;61064;51.654;5.476;2022-09-09T00:43:35;100755.19;;;14.85;81.68
72921;BME280;61064;51.654;5.476;2022-09-09T00:49:14;100782.72;;;14.98;81.60
72921;BME280;61064;51.654;5.476;2022-09-09T00:54:44;100747.16;;;14.82;81.56
72921;BME280;61064;51.654;5.476;2022-09-09T00:57:33;100777.38;;;14.95;81.78
72921;BME280;61064;51.654;5.476;2022-09-09T01:00:16;100771.19;;;14.91;81.96
72921;BME280;61064;51.654;5.476;2022-09-09T01:07:49;100764.13;;;14.83;81.66
72921;BME280;61064;51.654;5.476;2022-09-09T01:10:29;100767.69;;;14.86;81.90
72921;BME280;61064;51.654;5.476;2022-09-09T01:13:00;100765.91;;;14.85;81.76
72921;BME280;61064;51.654;5.476;2022-09-09T01:15:30;100757.94;;;14.79;81.71
72921;BME280;61064;51.654;5.476;2022-09-09T01:18:06;100759.78;;;14.73;81.68
72921;BME280;61064;51.654;5.476;2022-09-09T01:23:28;100774.91;;;14.78;81.79
72921;BME280;61064;51.654;5.476;2022-09-09T01:26:10;100767.81;;;14.76;81.81
72921;BME280;61064;51.654;5.476;2022-09-09T01:28:40;100765.16;;;14.73;81.81
72921;BME280;61064;51.654;5.476;2022-09-09T01:31:11;100757.22;;;14.65;81.96
72921;BME280;61064;51.654;5.476;2022-09-09T01:33:38;100761.66;;;14.66;81.91
72921;BME280;61064;51.654;5.476;2022-09-09T01:36:07;100741.22;;;14.59;82.15
72921;BME280;61064;51.654;5.476;2022-09-09T01:38:35;100753.63;;;14.66;81.94
72921;BME280;61064;51.654;5.476;2022-09-09T01:41:01;100739.44;;;14.58;82.01
72921;BME280;61064;51.654;5.476;2022-09-09T01:43:27;100725.25;;;14.51;81.98
72921;BME280;61064;51.654;5.476;2022-09-09T01:45:54;100717.25;;;14.48;82.00
72921;BME280;61064;51.654;5.476;2022-09-09T01:48:29;100699.53;;;14.35;82.13
72921;BME280;61064;51.654;5.476;2022-09-09T01:50:58;100690.63;;;14.33;81.97
72921;BME280;61064;51.654;5.476;2022-09-09T01:53:24;100679.06;;;14.30;82.20
72921;BME280;61064;51.654;5.476;2022-09-09T01:56:02;100749.13;;;14.70;82.42
72921;BME280;61064;51.654;5.476;2022-09-09T01:59:02;100735.88;;;14.56;82.34
72921;BME280;61064;51.654;5.476;2022-09-09T02:01:46;100684.44;;;14.28;82.25
72921;BME280;61064;51.654;5.476;2022-09-09T02:04:37;100725.25;;;14.50;82.39
72921;BME280;61064;51.654;5.476;2022-09-09T02:10:04;100718.09;;;14.50;82.30
72921;BME280;61064;51.654;5.476;2022-09-09T02:12:33;100676.38;;;14.31;82.20
72921;BME280;61064;51.654;5.476;2022-09-09T02:15:10;100707.41;;;14.50;82.46
72921;BME280;61064;51.654;5.476;2022-09-09T02:17:38;100690.56;;;14.41;82.34
72921;BME280;61064;51.654;5.476;2022-09-09T02:20:10;100710.06;;;14.53;82.49
72921;BME280;61064;51.654;5.476;2022-09-09T02:22:39;100709.16;;;14.53;82.45
72921;BME280;61064;51.654;5.476;2022-09-09T02:25:08;100717.22;;;14.50;82.54
72921;BME280;61064;51.654;5.476;2022-09-09T02:27:35;100710.06;;;14.53;82.67
72921;BME280;61064;51.654;5.476;2022-09-09T02:30:02;100708.28;;;14.51;82.57
72921;BME280;61064;51.654;5.476;2022-09-09T02:32:29;100667.50;;;14.28;82.74
72921;BME280;61064;51.654;5.476;2022-09-09T02:34:59;100657.66;;;14.28;82.40
72921;BME280;61064;51.654;5.476;2022-09-09T02:37:31;100705.59;;;14.54;82.61
72921;BME280;61064;51.654;5.476;2022-09-09T02:40:03;100700.28;;;14.49;82.58
72921;BME280;61064;51.654;5.476;2022-09-09T02:42:29;100710.06;;;14.53;82.56
72921;BME280;61064;51.654;5.476;2022-09-09T02:44:55;100690.56;;;14.42;82.66
72921;BME280;61064;51.654;5.476;2022-09-09T02:47:28;100710.06;;;14.50;82.80
72921;BME280;61064;51.654;5.476;2022-09-09T02:50:15;100737.53;;;14.68;82.65
72921;BME280;61064;51.654;5.476;2022-09-09T02:56:14;100742.06;;;14.61;82.73
72921;BME280;61064;51.654;5.476;2022-09-09T02:58:40;100740.28;;;14.60;82.84
72921;BME280;61064;51.654;5.476;2022-09-09T03:01:07;100719.06;;;14.45;82.70
72921;BME280;61064;51.654;5.476;2022-09-09T03:03:34;100715.47;;;14.47;82.74
72921;BME280;61064;51.654;5.476;2022-09-09T03:05:59;100704.88;;;14.38;82.76
72921;BME280;61064;51.654;5.476;2022-09-09T03:08:30;100696.03;;;14.30;82.96
72921;BME280;61064;51.654;5.476;2022-09-09T03:11:00;100729.69;;;14.54;82.86
72921;BME280;61064;51.654;5.476;2022-09-09T03:13:34;100694.25;;;14.29;82.87
72921;BME280;61064;51.654;5.476;2022-09-09T03:16:00;100719.13;;;14.40;82.92
72921;BME280;61064;51.654;5.476;2022-09-09T03:18:25;100710.22;;;14.38;82.92
72921;BME280;61064;51.654;5.476;2022-09-09T03:20:50;100738.56;;;14.54;83.02
72921;BME280;61064;51.654;5.476;2022-09-09T03:23:16;100732.38;;;14.52;83.04
72921;BME280;61064;51.654;5.476;2022-09-09T03:25:51;100671.16;;;14.19;83.35
72921;BME280;61064;51.654;5.476;2022-09-09T03:28:17;100673.84;;;14.18;83.02
72921;BME280;61064;51.654;5.476;2022-09-09T03:30:43;100712.88;;;14.41;83.14
72921;BME280;61064;51.654;5.476;2022-09-09T03:33:08;100699.59;;;14.31;83.08
72921;BME280;61064;51.654;5.476;2022-09-09T03:35:34;100681.88;;;14.19;83.03
72921;BME280;61064;51.654;5.476;2022-09-09T03:38:02;100681.88;;;14.18;83.30
72921;BME280;61064;51.654;5.476;2022-09-09T03:40:30;100720.91;;;14.41;83.21
72921;BME280;61064;51.654;5.476;2022-09-09T03:42:56;100698.69;;;14.29;83.17
72921;BME280;61064;51.654;5.476;2022-09-09T03:45:21;100725.38;;;14.41;83.32
72921;BME280;61064;51.654;5.476;2022-09-09T03:47:47;100720.00;;;14.41;83.37
72921;BME280;61064;51.654;5.476;2022-09-09T03:50:12;100692.53;;;14.24;83.38
72921;BME280;61064;51.654;5.476;2022-09-09T03:52:39;100712.88;;;14.40;83.37
72921;BME280;61064;51.654;5.476;2022-09-09T03:55:06;100675.69;;;14.14;83.46
72921;BME280;61064;51.654;5.476;2022-09-09T03:57:33;100682.72;;;14.23;83.33
72921;BME280;61064;51.654;5.476;2022-09-09T04:00:05;100730.66;;;14.48;83.47
72921;BME280;61064;51.654;5.476;2022-09-09T04:02:31;100695.06;;;14.34;83.38
72921;BME280;61064;51.654;5.476;2022-09-09T04:04:56;100692.41;;;14.34;83.39
72921;BME280;61064;51.654;5.476;2022-09-09T04:07:22;100670.28;;;14.20;83.35
72921;BME280;61064;51.654;5.476;2022-09-09T04:09:47;100724.34;;;14.54;83.70
72921;BME280;61064;51.654;5.476;2022-09-09T04:12:13;100721.66;;;14.54;83.77
72921;BME280;61064;51.654;5.476;2022-09-09T04:14:39;100698.63;;;14.38;83.71
72921;BME280;61064;51.654;5.476;2022-09-09T04:17:04;100717.22;;;14.50;83.40
72921;BME280;61064;51.654;5.476;2022-09-09T04:19:31;100706.63;;;14.41;83.63
72921;BME280;61064;51.654;5.476;2022-09-09T04:21:57;100656.91;;;14.15;83.69
72921;BME280;61064;51.654;5.476;2022-09-09T04:24:22;100656.06;;;14.13;83.64
72921;BME280;61064;51.654;5.476;2022-09-09T04:26:48;100728.81;;;14.49;83.75
72921;BME280;61064;51.654;5.476;2022-09-09T04:29:14;100656.97;;;14.14;83.75
72921;BME280;61064;51.654;5.476;2022-09-09T04:31:39;100664.09;;;14.13;83.81
72921;BME280;61064;51.654;5.476;2022-09-09T04:34:08;100663.22;;;14.13;83.81
72921;BME280;61064;51.654;5.476;2022-09-09T04:36:34;100714.59;;;14.44;83.89
72921;BME280;61064;51.654;5.476;2022-09-09T04:39:00;100673.78;;;14.24;83.95
72921;BME280;61064;51.654;5.476;2022-09-09T04:41:26;100698.66;;;14.33;83.97
72921;BME280;61064;51.654;5.476;2022-09-09T04:43:51;100697.72;;;14.39;84.04
72921;BME280;61064;51.654;5.476;2022-09-09T04:46:19;100655.13;;;14.16;83.74
72921;BME280;61064;51.654;5.476;2022-09-09T04:48:44;100645.31;;;14.16;83.80
72921;BME280;61064;51.654;5.476;2022-09-09T04:51:12;100689.69;;;14.40;84.01
72921;BME280;61064;51.654;5.476;2022-09-09T04:53:38;100714.47;;;14.56;84.06
72921;BME280;61064;51.654;5.476;2022-09-09T04:56:11;100635.56;;;14.11;84.13
72921;BME280;61064;51.654;5.476;2022-09-09T04:58:38;100659.50;;;14.26;84.16
72921;BME280;61064;51.654;5.476;2022-09-09T05:01:17;100679.81;;;14.45;84.11
72921;BME280;61064;51.654;5.476;2022-09-09T05:03:43;100686.94;;;14.43;84.09
72921;BME280;61064;51.654;5.476;2022-09-09T05:06:12;100710.84;;;14.62;84.08
72921;BME280;61064;51.654;5.476;2022-09-09T05:08:39;100694.84;;;14.55;84.22
72921;BME280;61064;51.654;5.476;2022-09-09T05:11:20;100680.75;;;14.41;84.28
72921;BME280;61064;51.654;5.476;2022-09-09T05:13:47;100670.09;;;14.34;84.18
72921;BME280;61064;51.654;5.476;2022-09-09T05:16:15;100633.66;;;14.22;84.12
72921;BME280;61064;51.654;5.476;2022-09-09T05:18:43;100672.59;;;14.49;84.20
72921;BME280;61064;51.654;5.476;2022-09-09T05:21:10;100645.09;;;14.35;83.97
72921;BME280;61064;51.654;5.476;2022-09-09T05:23:38;100638.06;;;14.28;84.00
72921;BME280;61064;51.654;5.476;2022-09-09T05:26:04;100635.34;;;14.31;84.17
72921;BME280;61064;51.654;5.476;2022-09-09T05:28:31;100655.78;;;14.42;84.29
72921;BME280;61064;51.654;5.476;2022-09-09T05:31:04;100631.75;;;14.33;84.05
72921;BME280;61064;51.654;5.476;2022-09-09T05:33:31;100676.97;;;14.59;84.34
72921;BME280;61064;51.654;5.476;2022-09-09T05:36:17;100678.63;;;14.66;84.34
72921;BME280;61064;51.654;5.476;2022-09-09T05:38:43;100651.13;;;14.55;84.34
72921;BME280;61064;51.654;5.476;2022-09-09T05:41:10;100656.47;;;14.58;84.25
72921;BME280;61064;51.654;5.476;2022-09-09T05:43:39;100666.19;;;14.65;84.50
72921;BME280;61064;51.654;5.476;2022-09-09T05:46:09;100616.50;;;14.43;84.39
72921;BME280;61064;51.654;5.476;2022-09-09T05:48:37;100700.72;;;14.85;84.25
72921;BME280;61064;51.654;5.476;2022-09-09T05:51:04;100643.06;;;14.58;84.39
72921;BME280;61064;51.654;5.476;2022-09-09T05:53:31;100637.72;;;14.55;84.33
72921;BME280;61064;51.654;5.476;2022-09-09T05:56:08;100634.16;;;14.54;84.42
72921;BME280;61064;51.654;5.476;2022-09-09T05:58:36;100644.84;;;14.57;84.39
72921;BME280;61064;51.654;5.476;2022-09-09T06:03:31;100641.16;;;14.66;84.27
72921;BME280;61064;51.654;5.476;2022-09-09T06:06:02;100681.91;;;14.89;84.45
72921;BME280;61064;51.654;5.476;2022-09-09T06:08:32;100687.16;;;14.97;84.56
72921;BME280;61064;51.654;5.476;2022-09-09T06:11:04;100690.66;;;15.02;84.42
72921;BME280;61064;51.654;5.476;2022-09-09T06:13:31;100693.25;;;15.08;84.33
72921;BME280;61064;51.654;5.476;2022-09-09T06:15:57;100648.88;;;14.90;84.50
72921;BME280;61064;51.654;5.476;2022-09-09T06:18:26;100687.81;;;15.14;84.37
72921;BME280;61064;51.654;5.476;2022-09-09T06:21:05;100655.84;;;15.01;84.53
72921;BME280;61064;51.654;5.476;2022-09-09T06:23:32;100659.22;;;15.15;84.36
72921;BME280;61064;51.654;5.476;2022-09-09T06:26:11;100650.22;;;15.19;84.33
72921;BME280;61064;51.654;5.476;2022-09-09T06:28:37;100651.81;;;15.30;83.91
72921;BME280;61064;51.654;5.476;2022-09-09T06:31:06;100649.06;;;15.36;84.14
72921;BME280;61064;51.654;5.476;2022-09-09T06:33:36;100645.31;;;15.45;83.88
72921;BME280;61064;51.654;5.476;2022-09-09T06:36:04;100651.50;;;15.50;83.82
72921;BME280;61064;51.654;5.476;2022-09-09T06:38:31;100654.91;;;15.61;83.75
72921;BME280;61064;51.654;5.476;2022-09-09T06:40:59;100654.78;;;15.70;83.70
72921;BME280;61064;51.654;5.476;2022-09-09T06:43:25;100659.16;;;15.74;83.43
72921;BME280;61064;51.654;5.476;2022-09-09T06:46:01;100643.25;;;15.65;83.42
72921;BME280;61064;51.654;5.476;2022-09-09T06:48:30;100644.88;;;15.72;83.18
72921;BME280;61064;51.654;5.476;2022-09-09T06:51:08;100647.53;;;15.74;83.06
72921;BME280;61064;51.654;5.476;2022-09-09T06:53:37;100665.88;;;15.98;83.26
72921;BME280;61064;51.654;5.476;2022-09-09T06:58:35;100683.47;;;16.14;83.10
72921;BME280;61064;51.654;5.476;2022-09-09T07:01:05;100663.72;;;16.17;83.00
72921;BME280;61064;51.654;5.476;2022-09-09T07:03:31;100675.09;;;16.31;82.85
72921;BME280;61064;51.654;5.476;2022-09-09T07:05:57;100635.97;;;16.18;83.00
72921;BME280;61064;51.654;5.476;2022-09-09T07:08:26;100689.69;;;16.62;82.67
72921;BME280;61064;51.654;5.476;2022-09-09T07:10:52;100649.63;;;16.50;82.48
72921;BME280;61064;51.654;5.476;2022-09-09T07:13:26;100631.78;;;16.48;82.19
72921;BME280;61064;51.654;5.476;2022-09-09T07:15:52;100646.59;;;16.69;82.14
72921;BME280;61064;51.654;5.476;2022-09-09T07:18:21;100673.75;;;16.95;81.56
72921;BME280;61064;51.654;5.476;2022-09-09T07:20:56;100688.47;;;17.17;81.37
72921;BME280;61064;51.654;5.476;2022-09-09T07:23:22;100682.22;;;17.17;81.19
72921;BME280;61064;51.654;5.476;2022-09-09T07:25:48;100645.69;;;17.08;80.69
72921;BME280;61064;51.654;5.476;2022-09-09T07:28:14;100643.88;;;17.09;80.68
72921;BME280;61064;51.654;5.476;2022-09-09T07:30:39;100696.97;;;17.37;80.40
72921;BME280;61064;51.654;5.476;2022-09-09T07:33:06;100626.88;;;17.08;80.19
72921;BME280;61064;51.654;5.476;2022-09-09T07:35:31;100624.28;;;17.05;80.15
72921;BME280;61064;51.654;5.476;2022-09-09T07:37:56;100649.16;;;17.13;79.92
72921;BME280;61064;51.654;5.476;2022-09-09T07:40:23;100664.00;;;17.29;79.86
72921;BME280;61064;51.654;5.476;2022-09-09T07:42:49;100626.78;;;17.11;79.45
72921;BME280;61064;51.654;5.476;2022-09-09T07:45:15;100641.81;;;17.21;79.30
72921;BME280;61064;51.654;5.476;2022-09-09T07:47:40;100641.97;;;17.14;79.19
72921;BME280;61064;51.654;5.476;2022-09-09T07:50:09;100681.88;;;17.32;78.99
72921;BME280;61064;51.654;5.476;2022-09-09T07:52:42;100648.38;;;17.08;78.64
72921;BME280;61064;51.654;5.476;2022-09-09T07:55:10;100636.84;;;17.03;78.71
72921;BME280;61064;51.654;5.476;2022-09-09T07:57:36;100640.53;;;16.99;78.62
72921;BME280;61064;51.654;5.476;2022-09-09T08:00:03;100639.69;;;16.97;78.66
72921;BME280;61064;51.654;5.476;2022-09-09T08:02:29;100690.06;;;17.27;78.70
72921;BME280;61064;51.654;5.476;2022-09-09T08:04:55;100692.56;;;17.33;78.69
72921;BME280;61064;51.654;5.476;2022-09-09T08:07:21;100674.78;;;17.28;78.74
72921;BME280;61064;51.654;5.476;2022-09-09T08:09:47;100696.06;;;17.38;78.76
72921;BME280;61064;51.654;5.476;2022-09-09T08:12:12;100709.28;;;17.48;78.62
72921;BME280;61064;51.654;5.476;2022-09-09T08:14:38;100688.78;;;17.42;78.15
72921;BME280;61064;51.654;5.476;2022-09-09T08:17:05;100715.47;;;17.51;78.24
72921;BME280;61064;51.654;5.476;2022-09-09T08:19:30;100697.63;;;17.47;78.15
72921;BME280;61064;51.654;5.476;2022-09-09T08:21:59;100665.91;;;17.24;78.05
72921;BME280;61064;51.654;5.476;2022-09-09T08:24:27;100715.41;;;17.54;77.92
72921;BME280;61064;51.654;5.476;2022-09-09T08:26:52;100685.38;;;17.34;77.68
72921;BME280;61064;51.654;5.476;2022-09-09T08:29:19;100690.84;;;17.31;77.68
72921;BME280;61064;51.654;5.476;2022-09-09T08:31:45;100711.97;;;17.48;77.46
72921;BME280;61064;51.654;5.476;2022-09-09T08:34:12;100671.41;;;17.20;77.66
72921;BME280;61064;51.654;5.476;2022-09-09T08:36:43;100706.56;;;17.49;77.56
72921;BME280;61064;51.654;5.476;2022-09-09T08:39:17;100683.56;;;17.36;77.55
72921;BME280;61064;51.654;5.476;2022-09-09T08:47:35;100714.28;;;17.64;77.34
72921;BME280;61064;51.654;5.476;2022-09-09T08:50:31;100728.50;;;17.69;77.24
72921;BME280;61064;51.654;5.476;2022-09-09T08:55:51;100698.13;;;17.64;76.95
72921;BME280;61064;51.654;5.476;2022-09-09T08:58:51;100729.91;;;17.84;76.46
72921;BME280;61064;51.654;5.476;2022-09-09T09:02:22;100724.47;;;17.87;76.26
72921;BME280;61064;51.654;5.476;2022-09-09T09:12:19;100728.09;;;17.86;75.96
72921;BME280;61064;51.654;5.476;2022-09-09T09:14:47;100737.09;;;17.83;75.52
72921;BME280;61064;51.654;5.476;2022-09-09T09:17:16;100746.94;;;17.84;75.55
72921;BME280;61064;51.654;5.476;2022-09-09T09:19:46;100729.16;;;17.79;75.72
72921;BME280;61064;51.654;5.476;2022-09-09T09:22:19;100746.91;;;17.88;75.56
72921;BME280;61064;51.654;5.476;2022-09-09T09:24:53;100739.66;;;17.90;75.58
72921;BME280;61064;51.654;5.476;2022-09-09T09:30:26;100737.81;;;17.92;75.47
72921;BME280;61064;51.654;5.476;2022-09-09T09:38:32;100731.28;;;18.00;75.30
72921;BME280;61064;51.654;5.476;2022-09-09T09:40:59;100738.53;;;17.98;75.03
72921;BME280;61064;51.654;5.476;2022-09-09T09:43:53;100729.63;;;17.96;74.83
72921;BME280;61064;51.654;5.476;2022-09-09T09:46:20;100741.25;;;17.98;74.72
72921;BME280;61064;51.654;5.476;2022-09-09T09:51:29;100742.16;;;17.97;74.74
72921;BME280;61064;51.654;5.476;2022-09-09T09:54:27;100734.94;;;17.99;74.73
72921;BME280;61064;51.654;5.476;2022-09-09T09:56:49;100740.25;;;18.01;74.72
72921;BME280;61064;51.654;5.476;2022-09-09T09:59:35;100733.97;;;18.00;74.51
72921;BME280;61064;51.654;5.476;2022-09-09T10:04:38;100731.13;;;18.06;74.66
72921;BME280;61064;51.654;5.476;2022-09-09T10:07:20;100735.56;;;18.09;74.65
72921;BME280;61064;51.654;5.476;2022-09-09T10:09:53;100732.78;;;18.12;74.43
72921;BME280;61064;51.654;5.476;2022-09-09T10:18:29;100741.84;;;18.09;74.92
72921;BME280;61064;51.654;5.476;2022-09-09T10:21:14;100748.19;;;18.07;74.79
72921;BME280;61064;51.654;5.476;2022-09-09T10:26:40;100755.00;;;17.86;75.70
72921;BME280;61064;51.654;5.476;2022-09-09T10:35:04;100751.97;;;17.63;76.95
72921;BME280;61064;51.654;5.476;2022-09-09T10:40:33;100739.56;;;17.56;77.47
72921;BME280;61064;51.654;5.476;2022-09-09T10:46:31;100746.56;;;17.64;77.93
72921;BME280;61064;51.654;5.476;2022-09-09T10:52:15;100743.94;;;17.61;77.75
72921;BME280;61064;51.654;5.476;2022-09-09T10:55:18;100745.69;;;17.64;77.97
72921;BME280;61064;51.654;5.476;2022-09-09T11:00:19;100721.66;;;17.55;77.87
72921;BME280;61064;51.654;5.476;2022-09-09T11:02:51;100731.44;;;17.57;78.04
72921;BME280;61064;51.654;5.476;2022-09-09T11:05:51;100743.00;;;17.64;78.06
72921;BME280;61064;51.654;5.476;2022-09-09T11:08:22;100750.88;;;17.71;77.93
72921;BME280;61064;51.654;5.476;2022-09-09T11:11:12;100748.13;;;17.73;77.88
72921;BME280;61064;51.654;5.476;2022-09-09T11:14:05;100748.13;;;17.73;77.85
72921;BME280;61064;51.654;5.476;2022-09-09T11:16:50;100750.88;;;17.71;77.87
72921;BME280;61064;51.654;5.476;2022-09-09T11:19:39;100749.22;;;17.66;78.01
72921;BME280;61064;51.654;5.476;2022-09-09T11:27:19;100743.72;;;17.72;78.17
72921;BME280;61064;51.654;5.476;2022-09-09T11:40:28;100723.59;;;17.86;78.12
72921;BME280;61064;51.654;5.476;2022-09-09T11:45:34;100738.69;;;17.92;77.71
72921;BME280;61064;51.654;5.476;2022-09-09T11:48:02;100748.56;;;17.93;77.84
72921;BME280;61064;51.654;5.476;2022-09-09T11:50:34;100726.41;;;17.82;77.90
72921;BME280;61064;51.654;5.476;2022-09-09T11:55:35;100728.97;;;17.86;78.11
72921;BME280;61064;51.654;5.476;2022-09-09T12:00:41;100735.97;;;17.94;78.28
72921;BME280;61064;51.654;5.476;2022-09-09T12:03:44;100728.72;;;17.96;78.44
72921;BME280;61064;51.654;5.476;2022-09-09T12:06:15;100750.22;;;17.97;78.30
72921;BME280;61064;51.654;5.476;2022-09-09T12:08:46;100743.94;;;17.98;78.42
72921;BME280;61064;51.654;5.476;2022-09-09T12:11:24;100736.88;;;17.94;78.54
72921;BME280;61064;51.654;5.476;2022-09-09T12:13:58;100731.38;;;17.97;78.38
72921;BME280;61064;51.654;5.476;2022-09-09T12:16:35;100718.94;;;17.93;78.52
72921;BME280;61064;51.654;5.476;2022-09-09T12:19:06;100733.91;;;18.05;78.53
72921;BME280;61064;51.654;5.476;2022-09-09T12:21:48;100733.94;;;18.03;78.17
72921;BME280;61064;51.654;5.476;2022-09-09T12:24:36;100719.56;;;18.03;78.11
72921;BME280;61064;51.654;5.476;2022-09-09T12:27:21;100738.25;;;18.09;78.22
72921;BME280;61064;51.654;5.476;2022-09-09T12:30:07;100717.66;;;18.08;78.10
72921;BME280;61064;51.654;5.476;2022-09-09T12:32:35;100718.34;;;18.16;78.19
72921;BME280;61064;51.654;5.476;2022-09-09T12:35:22;100719.75;;;18.29;78.26
72921;BME280;61064;51.654;5.476;2022-09-09T12:37:54;100723.97;;;18.39;78.06
72921;BME280;61064;51.654;5.476;2022-09-09T12:40:33;100714.03;;;18.41;77.92
72921;BME280;61064;51.654;5.476;2022-09-09T12:43:01;100727.19;;;18.55;77.76
72921;BME280;61064;51.654;5.476;2022-09-09T12:45:30;100701.19;;;18.51;77.46
72921;BME280;61064;51.654;5.476;2022-09-09T12:48:17;100706.22;;;18.64;77.28
72921;BME280;61064;51.654;5.476;2022-09-09T12:50:46;100727.31;;;18.81;76.98
72921;BME280;61064;51.654;5.476;2022-09-09T12:55:50;100706.53;;;18.85;76.14
72921;BME280;61064;51.654;5.476;2022-09-09T12:58:17;100703.75;;;18.88;75.85
72921;BME280;61064;51.654;5.476;2022-09-09T13:00:55;100725.94;;;18.96;75.46
72921;BME280;61064;51.654;5.476;2022-09-09T13:03:24;100706.59;;;18.83;75.50
72921;BME280;61064;51.654;5.476;2022-09-09T13:05:53;100697.94;;;18.72;75.46
72921;BME280;61064;51.654;5.476;2022-09-09T13:08:24;100705.25;;;18.67;75.52
72921;BME280;61064;51.654;5.476;2022-09-09T13:10:59;100720.34;;;18.73;75.78
72921;BME280;61064;51.654;5.476;2022-09-09T13:13:36;100715.09;;;18.68;76.19
72921;BME280;61064;51.654;5.476;2022-09-09T13:16:05;100713.31;;;18.67;76.31
72921;BME280;61064;51.654;5.476;2022-09-09T13:18:34;100715.03;;;18.71;76.69
72921;BME280;61064;51.654;5.476;2022-09-09T13:21:01;100706.81;;;18.76;76.88
72921;BME280;61064;51.654;5.476;2022-09-09T13:23:32;100707.97;;;18.96;76.86
72921;BME280;61064;51.654;5.476;2022-09-09T13:26:06;100702.91;;;19.15;76.69
72921;BME280;61064;51.654;5.476;2022-09-09T13:28:46;100695.22;;;19.31;76.52
72921;BME280;61064;51.654;5.476;2022-09-09T13:31:22;100702.66;;;19.52;76.28
72921;BME280;61064;51.654;5.476;2022-09-09T13:33:48;100673.53;;;19.62;75.88
72921;BME280;61064;51.654;5.476;2022-09-09T13:36:14;100688.34;;;19.76;75.64
72921;BME280;61064;51.654;5.476;2022-09-09T13:41:43;100686.50;;;20.03;74.82
72921;BME280;61064;51.654;5.476;2022-09-09T13:44:25;100684.66;;;20.05;74.13
72921;BME280;61064;51.654;5.476;2022-09-09T13:49:28;100691.66;;;20.11;73.64
72921;BME280;61064;51.654;5.476;2022-09-09T13:52:09;100691.75;;;20.08;73.51
72921;BME280;61064;51.654;5.476;2022-09-09T13:54:35;100676.44;;;20.08;73.39
72921;BME280;61064;51.654;5.476;2022-09-09T13:57:00;100686.50;;;20.03;73.24
72921;BME280;61064;51.654;5.476;2022-09-09T13:59:26;100674.09;;;19.98;73.28
72921;BME280;61064;51.654;5.476;2022-09-09T14:01:52;100691.78;;;20.06;73.16
72921;BME280;61064;51.654;5.476;2022-09-09T14:04:19;100685.63;;;20.03;73.07
72921;BME280;61064;51.654;5.476;2022-09-09T14:06:47;100677.56;;;20.01;72.92
72921;BME280;61064;51.654;5.476;2022-09-09T14:09:18;100686.50;;;20.03;72.48
72921;BME280;61064;51.654;5.476;2022-09-09T14:11:44;100687.59;;;19.98;72.24
72921;BME280;61064;51.654;5.476;2022-09-09T14:14:12;100687.81;;;19.91;72.12
72921;BME280;61064;51.654;5.476;2022-09-09T14:16:38;100680.03;;;19.82;72.80
72921;BME280;61064;51.654;5.476;2022-09-09T14:19:03;100675.44;;;19.84;73.34
72921;BME280;61064;51.654;5.476;2022-09-09T14:21:29;100662.06;;;19.81;73.69
72921;BME280;61064;51.654;5.476;2022-09-09T14:23:54;100673.22;;;19.97;73.62
72921;BME280;61064;51.654;5.476;2022-09-09T14:26:22;100678.25;;;20.08;73.74
72921;BME280;61064;51.654;5.476;2022-09-09T14:28:48;100675.31;;;20.14;73.34
72921;BME280;61064;51.654;5.476;2022-09-09T14:31:15;100665.28;;;20.17;73.25
72921;BME280;61064;51.654;5.476;2022-09-09T14:33:42;100671.66;;;20.16;73.19
72921;BME280;61064;51.654;5.476;2022-09-09T14:36:08;100669.72;;;20.20;72.74
72921;BME280;61064;51.654;5.476;2022-09-09T14:38:36;100673.16;;;20.23;72.43
72921;BME280;61064;51.654;5.476;2022-09-09T14:41:10;100676.09;;;20.17;72.21
72921;BME280;61064;51.654;5.476;2022-09-09T14:43:37;100678.88;;;20.16;71.92
72921;BME280;61064;51.654;5.476;2022-09-09T14:46:07;100676.44;;;20.08;72.07
72921;BME280;61064;51.654;5.476;2022-09-09T14:48:34;100673.69;;;20.10;72.06
72921;BME280;61064;51.654;5.476;2022-09-09T14:51:08;100665.66;;;20.07;71.62
72921;BME280;61064;51.654;5.476;2022-09-09T14:53:33;100671.75;;;20.13;71.31
72921;BME280;61064;51.654;5.476;2022-09-09T14:56:16;100680.72;;;20.14;71.19
72921;BME280;61064;51.654;5.476;2022-09-09T14:58:42;100678.06;;;20.12;71.08
72921;BME280;61064;51.654;5.476;2022-09-09T15:01:10;100685.53;;;20.06;70.87
72921;BME280;61064;51.654;5.476;2022-09-09T15:03:37;100676.13;;;19.91;70.86
72921;BME280;61064;51.654;5.476;2022-09-09T15:06:08;100679.88;;;19.87;70.93
72921;BME280;61064;51.654;5.476;2022-09-09T15:08:39;100672.19;;;19.75;71.08
72921;BME280;61064;51.654;5.476;2022-09-09T15:11:05;100684.75;;;19.76;71.26
72921;BME280;61064;51.654;5.476;2022-09-09T15:13:35;100673.44;;;19.65;71.22
72921;BME280;61064;51.654;5.476;2022-09-09T15:16:17;100678.16;;;19.58;71.38
72921;BME280;61064;51.654;5.476;2022-09-09T15:18:43;100699.66;;;19.61;71.45
72921;BME280;61064;51.654;5.476;2022-09-09T15:21:15;100713.47;;;19.50;71.81